Time;durP1;ratioP1;P1;durP2;ratioP2;P2;SDS_P1;SDS_P2;PMS_P1;PMS_P2;Temp;Humidity;BMP_temperature;BMP_pressure;BME280_temperature;BME280_humidity;BME280_pressure;Samples;Min_cycle;Max_cycle;Signal;HPM_P1;HPM_P2
2022/10/18 00:01:35;;;;;;;0.73;0.40;;;;;;;19.75;50.07;100280.09;4975120;28;20023;-86
2022/10/18 00:04:09;;;;;;;0.50;0.40;;;;;;;19.89;49.75;100294.94;4954627;28;20498;-86
2022/10/18 00:06:35;;;;;;;0.57;0.30;;;;;;;20.05;50.03;100325.78;4943643;28;20035;-86
2022/10/18 00:09:01;;;;;;;0.40;0.32;;;;;;;19.85;49.93;100293.78;4945264;28;20550;-86
2022/10/18 00:11:26;;;;;;;2.08;0.50;;;;;;;20.04;50.46;100319.53;4971835;28;20378;-86
2022/10/18 00:13:52;;;;;;;3.35;0.47;;;;;;;20.08;49.76;100320.66;4947691;28;20057;-86
2022/10/18 00:16:18;;;;;;;0.32;0.30;;;;;;;19.86;49.78;100281.88;4979038;28;20034;-86
2022/10/18 00:18:43;;;;;;;0.60;0.45;;;;;;;20.08;49.73;100309.81;4960042;28;20498;-87
2022/10/18 00:21:20;;;;;;;0.47;0.30;;;;;;;20.05;50.11;100304.88;4966494;28;20395;-87
2022/10/18 00:23:46;;;;;;;1.00;0.40;;;;;;;20.09;50.04;100297.06;4968837;28;20484;-87
2022/10/18 00:26:17;;;;;;;0.95;0.40;;;;;;;20.06;50.10;100295.69;4968398;28;20079;-86
2022/10/18 00:28:42;;;;;;;0.93;0.30;;;;;;;20.06;49.54;100300.31;4971697;28;20467;-87
2022/10/18 00:31:17;;;;;;;1.65;0.40;;;;;;;20.06;50.03;100292.16;4969521;28;20030;-87
2022/10/18 00:33:45;;;;;;;0.30;0.30;;;;;;;20.07;49.94;100296.50;4945819;28;20029;-87
2022/10/18 00:36:11;;;;;;;0.43;0.40;;;;;;;19.80;49.70;100245.75;4946357;28;20027;-87
2022/10/18 00:38:39;;;;;;;0.40;0.40;;;;;;;19.70;50.28;100221.19;4969833;28;20138;-87
2022/10/18 00:41:06;;;;;;;0.38;0.30;;;;;;;19.85;49.88;100245.81;4983115;28;20320;-86
2022/10/18 00:43:32;;;;;;;0.63;0.40;;;;;;;19.96;49.95;100262.19;4971357;28;20316;-87
2022/10/18 00:45:57;;;;;;;1.83;0.40;;;;;;;19.95;49.68;100250.50;4939545;28;20419;-87
2022/10/18 00:48:23;;;;;;;0.30;0.30;;;;;;;20.04;50.18;100278.84;4961706;28;20506;-86
2022/10/18 00:50:49;;;;;;;0.50;0.40;;;;;;;19.86;49.75;100230.34;4974966;28;20045;-86
2022/10/18 00:53:17;;;;;;;0.43;0.30;;;;;;;19.99;49.89;100250.81;4961342;28;20061;-86
2022/10/18 00:55:42;;;;;;;0.35;0.30;;;;;;;20.02;50.00;100250.31;4933159;28;20031;-86
2022/10/18 00:58:08;;;;;;;0.70;0.32;;;;;;;20.03;49.88;100241.94;4965520;28;20537;-87
2022/10/18 01:00:37;;;;;;;0.90;0.40;;;;;;;19.88;49.65;100228.19;4967590;28;20031;-87
2022/10/18 01:03:06;;;;;;;0.65;0.40;;;;;;;19.95;49.80;100217.97;4970739;28;20031;-87
2022/10/18 01:05:39;;;;;;;1.55;0.40;;;;;;;19.99;50.06;100229.97;4977624;28;20121;-87
2022/10/18 01:08:14;;;;;;;0.63;0.30;;;;;;;20.03;49.75;100228.38;4967650;28;20059;-87
2022/10/18 01:10:47;;;;;;;0.45;0.32;;;;;;;20.03;49.56;100228.38;4981872;28;20033;-87
2022/10/18 01:13:42;;;;;;;0.70;0.50;;;;;;;20.03;49.76;100220.22;4942922;28;20444;-87
2022/10/18 01:16:25;;;;;;;0.38;0.38;;;;;;;19.84;49.68;100195.34;4971855;28;20034;-87
2022/10/18 01:18:57;;;;;;;0.40;0.40;;;;;;;19.88;49.95;100198.38;4963988;28;20130;-87
2022/10/18 01:21:45;;;;;;;1.23;0.50;;;;;;;20.00;49.69;100226.16;4957301;28;20243;-87
2022/10/18 01:24:24;;;;;;;2.03;0.40;;;;;;;20.00;49.74;100199.03;4969980;28;20467;-87
2022/10/18 01:27:09;;;;;;;0.65;0.50;;;;;;;19.99;49.69;100191.16;4974989;28;20061;-87
2022/10/18 01:30:13;;;;;;;0.40;0.40;;;;;;;19.99;49.58;100183.00;4955825;28;20038;-87
2022/10/18 01:32:41;;;;;;;0.80;0.40;;;;;;;19.81;49.56;100162.50;4975864;28;20102;-87
2022/10/18 01:35:10;;;;;;;0.40;0.40;;;;;;;19.76;49.82;100148.88;4975923;28;20038;-87
2022/10/18 01:37:39;;;;;;;0.40;0.40;;;;;;;19.89;49.69;100175.59;4943254;28;20030;-87
2022/10/18 01:40:07;;;;;;;1.65;0.40;;;;;;;19.89;49.98;100170.19;4943257;28;20022;-87
2022/10/18 01:42:34;;;;;;;0.68;0.40;;;;;;;19.99;49.54;100181.13;4965503;28;20488;-87
2022/10/18 01:45:00;;;;;;;0.52;0.30;;;;;;;19.98;49.64;100190.34;4970647;28;20139;-87
2022/10/18 01:47:26;;;;;;;0.47;0.40;;;;;;;19.67;49.86;100141.16;4971929;28;20023;-87
2022/10/18 01:49:58;;;;;;;0.95;0.40;;;;;;;19.96;49.59;100173.50;4970554;28;20038;-87
2022/10/18 01:52:24;;;;;;;0.50;0.40;;;;;;;19.95;49.87;100162.91;4977593;28;20089;-87
2022/10/18 01:54:50;;;;;;;0.30;0.30;;;;;;;19.92;49.88;100161.53;4967173;28;20038;-86
2022/10/18 01:58:04;;;;;;;0.30;0.30;;;;;;;19.96;49.77;100159.94;4972052;28;20466;-87
2022/10/18 02:00:50;;;;;;;0.55;0.30;;;;;;;19.98;49.73;100157.78;4912917;28;20039;-87
2022/10/18 02:03:22;;;;;;;1.00;0.40;;;;;;;19.96;49.55;100146.38;4945067;28;20050;-87
2022/10/18 02:05:51;;;;;;;0.70;0.40;;;;;;;19.96;49.87;100146.38;4987360;28;20026;-87
2022/10/18 02:08:38;;;;;;;0.43;0.30;;;;;;;19.94;49.75;100140.41;4966090;28;20110;-87
2022/10/18 02:11:08;;;;;;;0.40;0.40;;;;;;;19.79;49.85;100126.69;4982271;28;20042;-87
2022/10/18 02:13:52;;;;;;;0.40;0.30;;;;;;;19.92;49.71;100129.00;4961855;28;20498;-87
2022/10/18 02:16:23;;;;;;;0.30;0.30;;;;;;;19.79;49.75;100105.00;4981246;28;20035;-87
2022/10/18 02:18:57;;;;;;;0.30;0.30;;;;;;;19.72;49.99;100093.50;4978947;28;20406;-87
2022/10/18 02:21:23;;;;;;;0.30;0.30;;;;;;;19.93;49.74;100125.19;4960218;28;20049;-87
2022/10/18 02:23:48;;;;;;;1.95;0.40;;;;;;;19.85;49.52;100107.50;4981355;28;20031;-87
2022/10/18 02:26:14;;;;;;;0.75;0.40;;;;;;;19.73;50.11;100087.84;4955024;28;20022;-87
2022/10/18 02:28:40;;;;;;;0.40;0.40;;;;;;;19.93;49.42;100122.47;4957163;28;20032;-87
2022/10/18 02:31:54;;;;;;;0.40;0.35;;;;;;;19.93;49.50;100110.81;4974453;28;20031;-87
2022/10/18 02:34:31;;;;;;;0.40;0.40;;;;;;;19.94;49.81;100121.41;4962301;28;20031;-87
2022/10/18 02:36:58;;;;;;;1.02;0.47;;;;;;;19.92;49.89;100115.44;4962926;28;20751;-87
2022/10/18 02:39:32;;;;;;;0.63;0.40;;;;;;;19.83;50.14;100103.41;4967129;28;20034;-87
2022/10/18 02:41:58;;;;;;;1.98;0.52;;;;;;;19.86;50.01;100105.59;4945084;28;20030;-87
2022/10/18 02:44:24;;;;;;;0.30;0.30;;;;;;;19.91;49.73;100116.50;4969473;28;20169;-87
2022/10/18 02:46:50;;;;;;;0.75;0.40;;;;;;;19.88;49.92;100103.44;4973429;28;20121;-87
2022/10/18 02:49:16;;;;;;;0.52;0.35;;;;;;;19.92;49.94;100107.31;4975290;28;20022;-87
2022/10/18 02:51:41;;;;;;;0.47;0.45;;;;;;;19.78;50.05;100081.66;4961065;28;20575;-87
2022/10/18 02:54:07;;;;;;;2.17;0.40;;;;;;;19.88;49.71;100093.41;4957912;28;20022;-87
2022/10/18 02:56:33;;;;;;;0.50;0.40;;;;;;;19.87;49.86;100088.28;4951810;28;20034;-87
2022/10/18 02:58:59;;;;;;;1.38;0.50;;;;;;;19.80;49.83;100087.63;4985328;28;20125;-87
2022/10/18 03:01:26;;;;;;;0.32;0.28;;;;;;;19.63;49.75;100042.44;4954040;28;20044;-87
2022/10/18 03:03:52;;;;;;;1.85;0.50;;;;;;;19.90;49.99;100074.16;4963292;28;20042;-87
2022/10/18 03:06:17;;;;;;;0.80;0.40;;;;;;;19.89;50.08;100070.66;4971916;28;20094;-86
2022/10/18 03:08:43;;;;;;;0.85;0.35;;;;;;;19.89;50.08;100075.25;4931651;28;20057;-86
2022/10/18 03:11:08;;;;;;;1.10;0.40;;;;;;;19.63;49.84;100031.59;4955563;28;20018;-87
2022/10/18 03:13:34;;;;;;;0.90;0.40;;;;;;;19.57;50.13;100021.78;4967481;28;20115;-87
2022/10/18 03:16:00;;;;;;;0.55;0.40;;;;;;;19.80;49.83;100041.53;4986130;28;20455;-87
2022/10/18 03:18:25;;;;;;;1.13;0.38;;;;;;;19.80;49.97;100044.25;4972674;28;20098;-87
2022/10/18 03:20:51;;;;;;;0.35;0.35;;;;;;;19.88;50.10;100051.91;4970237;28;20031;-87
2022/10/18 03:23:17;;;;;;;0.52;0.50;;;;;;;19.83;49.98;100041.88;4981362;28;20031;-87
2022/10/18 03:25:42;;;;;;;0.32;0.32;;;;;;;19.87;49.90;100042.16;4971501;28;20023;-87
2022/10/18 03:28:08;;;;;;;0.63;0.50;;;;;;;19.87;50.17;100044.88;4975078;28;20109;-87
2022/10/18 03:30:33;;;;;;;0.65;0.50;;;;;;;19.88;50.32;100038.38;4965848;28;20433;-87
2022/10/18 03:32:59;;;;;;;0.75;0.40;;;;;;;19.81;49.99;100021.50;4953187;28;20035;-87
2022/10/18 03:35:25;;;;;;;0.30;0.30;;;;;;;19.62;49.68;99992.00;4968957;28;20472;-87
2022/10/18 03:37:51;;;;;;;2.15;0.55;;;;;;;19.69;49.77;100002.66;4970828;28;20035;-87
2022/10/18 03:40:16;;;;;;;0.43;0.40;;;;;;;19.56;50.33;99993.06;4972340;28;20098;-87
2022/10/18 03:42:42;;;;;;;0.40;0.40;;;;;;;19.76;50.18;100011.41;4979062;28;20079;-87
2022/10/18 03:45:08;;;;;;;0.60;0.40;;;;;;;19.73;49.86;100013.78;4979106;28;20034;-87
2022/10/18 03:47:34;;;;;;;2.35;0.40;;;;;;;19.84;50.16;100037.25;4959375;28;20027;-87
2022/10/18 03:49:59;;;;;;;1.33;0.40;;;;;;;19.79;49.91;100029.88;4950595;28;20019;-87
2022/10/18 03:52:25;;;;;;;0.90;0.43;;;;;;;19.67;49.86;100008.31;4946985;28;20117;-87
2022/10/18 03:54:50;;;;;;;0.50;0.50;;;;;;;19.81;49.70;100029.63;4960319;28;20042;-87
2022/10/18 03:57:16;;;;;;;0.85;0.50;;;;;;;19.86;49.87;100035.09;4949206;28;20055;-87
2022/10/18 03:59:42;;;;;;;0.65;0.40;;;;;;;19.79;50.36;100021.75;4972175;28;20431;-86
2022/10/18 04:02:07;;;;;;;3.50;0.40;;;;;;;19.76;49.92;100021.44;4964444;28;20133;-86
2022/10/18 04:04:33;;;;;;;1.08;0.43;;;;;;;19.70;49.93;100013.25;4975302;28;20046;-87
2022/10/18 04:06:59;;;;;;;1.00;0.40;;;;;;;19.78;49.74;100030.97;4968435;28;20031;-87
2022/10/18 04:09:24;;;;;;;0.32;0.30;;;;;;;19.84;50.12;100031.84;4973817;28;20032;-87
2022/10/18 04:11:50;;;;;;;0.73;0.47;;;;;;;19.85;49.97;100028.88;4975632;28;20039;-86
2022/10/18 04:14:16;;;;;;;0.50;0.40;;;;;;;19.74;49.89;100020.88;4946347;28;20029;-86
2022/10/18 04:16:41;;;;;;;0.30;0.30;;;;;;;19.80;50.44;100031.53;4950411;28;20055;-87
2022/10/18 04:19:07;;;;;;;1.13;0.70;;;;;;;19.83;50.08;100036.44;4969058;28;20049;-87
2022/10/18 04:21:33;;;;;;;2.05;0.60;;;;;;;19.85;50.69;100036.16;4980213;28;20042;-87
2022/10/18 04:23:58;;;;;;;1.00;0.50;;;;;;;19.79;49.84;100034.50;4965620;28;20034;-87
2022/10/18 04:26:24;;;;;;;1.00;0.50;;;;;;;19.83;50.28;100036.44;4971931;28;20023;-86
2022/10/18 04:28:49;;;;;;;2.95;0.45;;;;;;;19.84;50.35;100031.84;4967766;28;20122;-86
2022/10/18 04:31:16;;;;;;;1.20;0.40;;;;;;;19.85;50.01;100033.44;4953247;28;20059;-87
2022/10/18 04:33:42;;;;;;;0.85;0.40;;;;;;;19.83;50.01;100028.31;4980009;28;20206;-86
2022/10/18 04:36:08;;;;;;;1.10;0.40;;;;;;;19.79;50.30;100024.47;4976498;28;20027;-86
2022/10/18 04:38:33;;;;;;;1.05;0.43;;;;;;;19.74;50.31;100031.72;4947088;28;20037;-86
2022/10/18 04:40:59;;;;;;;2.05;0.57;;;;;;;19.78;50.30;100019.28;4970369;28;20113;-86
2022/10/18 04:43:24;;;;;;;0.85;0.50;;;;;;;19.76;49.88;100014.13;4951338;28;20473;-86
2022/10/18 04:45:50;;;;;;;0.85;0.50;;;;;;;19.81;49.99;100016.88;4968853;28;20026;-87
2022/10/18 04:48:16;;;;;;;0.82;0.30;;;;;;;19.57;50.02;99972.19;4974974;28;20026;-87
2022/10/18 04:50:42;;;;;;;1.58;0.55;;;;;;;19.80;50.29;100006.28;4939481;28;20117;-87
2022/10/18 04:53:08;;;;;;;1.65;0.50;;;;;;;19.51;50.12;99968.63;4950812;28;20026;-87
2022/10/18 04:55:34;;;;;;;1.75;0.40;;;;;;;19.67;50.28;99997.47;4965488;28;20027;-87
2022/10/18 04:57:59;;;;;;;0.73;0.50;;;;;;;19.65;50.32;99991.50;4966104;28;20022;-87
2022/10/18 05:00:25;;;;;;;1.05;0.50;;;;;;;19.78;50.12;100012.00;4970781;28;20027;-87
2022/10/18 05:03:00;;;;;;;0.73;0.40;;;;;;;19.66;50.10;99998.56;4968710;28;20137;-87
2022/10/18 05:05:25;;;;;;;0.68;0.30;;;;;;;19.78;50.25;100028.25;4941964;28;20069;-87
2022/10/18 05:07:51;;;;;;;1.20;0.50;;;;;;;19.57;50.21;99999.28;4950008;28;20035;-86
2022/10/18 05:10:17;;;;;;;0.75;0.38;;;;;;;19.67;49.90;100021.88;4973111;28;20022;-86
2022/10/18 05:12:42;;;;;;;0.50;0.32;;;;;;;19.69;49.81;100016.19;4970529;28;20031;-87
2022/10/18 05:15:08;;;;;;;1.48;0.40;;;;;;;19.63;49.80;100009.94;4984432;28;20025;-87
2022/10/18 05:17:34;;;;;;;0.40;0.40;;;;;;;19.80;50.34;100038.81;4977387;28;20082;-87
2022/10/18 05:20:00;;;;;;;0.50;0.40;;;;;;;19.79;50.71;100045.34;4974130;28;20121;-87
2022/10/18 05:22:25;;;;;;;0.93;0.50;;;;;;;19.63;49.67;100023.47;4977977;28;20034;-87
2022/10/18 05:24:51;;;;;;;0.98;0.40;;;;;;;19.80;50.30;100041.53;4944347;28;20055;-87
2022/10/18 05:27:17;;;;;;;0.93;0.40;;;;;;;19.72;50.34;100031.97;4969872;28;20488;-87
2022/10/18 05:29:42;;;;;;;0.77;0.40;;;;;;;19.74;50.40;100024.41;4988666;28;20122;-87
2022/10/18 05:32:08;;;;;;;0.80;0.50;;;;;;;19.70;50.34;100013.25;4967637;28;20436;-87
2022/10/18 05:34:34;;;;;;;0.73;0.40;;;;;;;19.52;49.89;99991.91;4976704;28;20031;-87
2022/10/18 05:36:59;;;;;;;0.73;0.50;;;;;;;19.78;50.08;100022.00;4983511;28;20062;-87
2022/10/18 05:39:25;;;;;;;0.50;0.45;;;;;;;19.79;50.06;100034.50;4984804;28;20122;-87
2022/10/18 05:41:51;;;;;;;1.85;0.43;;;;;;;19.66;50.36;100019.41;4973002;28;20097;-87
2022/10/18 05:44:16;;;;;;;0.85;0.50;;;;;;;19.63;50.49;100020.75;4967621;28;20030;-87
2022/10/18 05:46:42;;;;;;;1.35;0.57;;;;;;;19.51;50.46;100001.13;4973188;28;20088;-87
2022/10/18 05:49:10;;;;;;;1.20;0.40;;;;;;;19.79;50.14;100039.91;4956931;28;20187;-87
2022/10/18 05:51:36;;;;;;;0.75;0.30;;;;;;;19.73;49.94;100035.47;4938505;28;20459;-87
2022/10/18 05:54:01;;;;;;;0.60;0.50;;;;;;;19.60;50.15;100006.91;4985562;28;20030;-87
2022/10/18 05:56:27;;;;;;;0.88;0.40;;;;;;;19.79;50.58;100034.50;4951952;28;20123;-87
2022/10/18 05:58:55;;;;;;;1.08;0.40;;;;;;;19.77;50.01;100028.53;4974993;28;20447;-87
2022/10/18 06:01:20;;;;;;;1.05;0.45;;;;;;;19.61;50.24;100006.66;4965431;28;20058;-86
2022/10/18 06:03:46;;;;;;;0.93;0.50;;;;;;;19.78;50.30;100040.97;4969188;28;20027;-87
2022/10/18 06:06:12;;;;;;;0.63;0.30;;;;;;;19.77;50.09;100031.22;4964773;28;20026;-87
2022/10/18 06:08:38;;;;;;;0.88;0.50;;;;;;;19.78;50.07;100027.44;4973761;28;20022;-87
2022/10/18 06:11:11;;;;;;;0.90;0.40;;;;;;;19.77;50.27;100023.91;4985439;28;20030;-86
2022/10/18 06:13:46;;;;;;;0.38;0.30;;;;;;;19.77;50.13;100023.09;4969828;28;20498;-86
2022/10/18 06:16:13;;;;;;;0.70;0.40;;;;;;;19.78;50.42;100027.44;4971559;28;20443;-86
2022/10/18 06:18:39;;;;;;;0.63;0.32;;;;;;;19.67;50.37;100004.81;4967141;28;20039;-86
2022/10/18 06:21:04;;;;;;;1.67;0.30;;;;;;;19.43;50.67;99971.78;4955493;28;20034;-86
2022/10/18 06:23:30;;;;;;;0.77;0.40;;;;;;;19.63;50.18;99999.09;4979794;28;20026;-87
2022/10/18 06:25:59;;;;;;;0.70;0.43;;;;;;;19.75;50.45;100011.66;4967396;28;20499;-86
2022/10/18 06:28:26;;;;;;;0.75;0.40;;;;;;;19.78;50.77;100016.59;4971083;28;20065;-86
2022/10/18 06:30:51;;;;;;;0.40;0.40;;;;;;;19.74;50.16;100012.72;4974736;28;20348;-86
2022/10/18 06:33:17;;;;;;;1.25;0.47;;;;;;;19.66;50.14;100003.16;4975005;28;20369;-86
2022/10/18 06:35:42;;;;;;;0.52;0.40;;;;;;;19.73;50.64;100019.22;4972263;28;20026;-87
2022/10/18 06:38:08;;;;;;;0.80;0.47;;;;;;;19.62;50.75;100010.97;4956831;28;20475;-86
2022/10/18 06:40:36;;;;;;;0.30;0.30;;;;;;;19.56;50.46;100003.06;4957318;28;20511;-86
2022/10/18 06:43:05;;;;;;;1.10;0.50;;;;;;;19.78;50.16;100024.72;4962956;28;20468;-86
2022/10/18 06:45:32;;;;;;;1.23;0.50;;;;;;;19.73;49.89;100024.63;4972838;28;20030;-86
2022/10/18 06:47:58;;;;;;;1.13;0.32;;;;;;;19.77;50.33;100036.66;4983701;28;20030;-86
2022/10/18 06:50:23;;;;;;;0.75;0.47;;;;;;;19.67;50.60;100016.47;4961139;28;20476;-86
2022/10/18 06:52:51;;;;;;;1.33;0.50;;;;;;;19.76;50.52;100027.69;4985377;28;20035;-86
2022/10/18 06:55:17;;;;;;;0.93;0.45;;;;;;;19.75;50.72;100027.94;4956702;28;20018;-86
2022/10/18 06:57:42;;;;;;;1.65;0.50;;;;;;;19.75;50.83;100027.94;4953984;28;20113;-86
2022/10/18 07:00:08;;;;;;;0.43;0.38;;;;;;;19.66;50.37;100008.56;4947604;28;20053;-86
2022/10/18 07:02:40;;;;;;;0.38;0.30;;;;;;;19.72;50.64;100018.41;4937425;28;20026;-86
2022/10/18 07:05:07;;;;;;;0.32;0.32;;;;;;;19.75;50.70;100022.50;4980884;28;20036;-86
2022/10/18 07:07:32;;;;;;;1.27;0.40;;;;;;;19.74;50.70;100015.44;4952207;28;20033;-86
2022/10/18 07:09:58;;;;;;;1.02;0.40;;;;;;;19.76;50.67;100021.44;4977790;28;20424;-86
2022/10/18 07:12:23;;;;;;;2.13;0.60;;;;;;;19.74;50.86;100024.41;4978522;28;20102;-86
2022/10/18 07:14:49;;;;;;;1.20;0.50;;;;;;;19.65;50.37;100010.47;4966544;28;20033;-86
2022/10/18 07:17:15;;;;;;;1.05;0.50;;;;;;;19.59;50.33;100008.81;4979651;28;20521;-86
2022/10/18 07:19:40;;;;;;;0.43;0.30;;;;;;;19.75;50.45;100015.22;4963672;28;20038;-86
2022/10/18 07:22:06;;;;;;;1.30;0.40;;;;;;;19.75;50.68;100025.22;4956934;28;20142;-86
2022/10/18 07:24:32;;;;;;;0.90;0.30;;;;;;;19.66;50.83;100016.72;4951121;28;20122;-86
2022/10/18 07:26:57;;;;;;;0.63;0.35;;;;;;;19.76;50.92;100021.44;4951699;28;20112;-86
2022/10/18 07:29:23;;;;;;;1.80;0.40;;;;;;;19.75;50.84;100017.94;4968848;28;20026;-86
2022/10/18 07:31:48;;;;;;;0.50;0.25;;;;;;;19.59;50.43;99992.56;4968978;28;20109;-86
2022/10/18 07:34:14;;;;;;;1.55;0.50;;;;;;;19.76;51.03;100010.59;4969974;28;20117;-86
2022/10/18 07:36:40;;;;;;;0.70;0.38;;;;;;;19.51;51.10;99982.97;4973245;28;20110;-86
2022/10/18 07:39:08;;;;;;;0.43;0.30;;;;;;;19.75;50.38;100017.09;4949719;28;20030;-86
2022/10/18 07:41:34;;;;;;;0.40;0.30;;;;;;;19.77;50.69;100017.69;4987948;28;20038;-86
2022/10/18 07:44:00;;;;;;;0.30;0.30;;;;;;;19.76;50.53;100019.53;4967174;28;20503;-86
2022/10/18 07:46:26;;;;;;;0.40;0.40;;;;;;;19.76;51.08;100021.44;4981077;28;20053;-86
2022/10/18 07:48:51;;;;;;;0.30;0.30;;;;;;;19.57;50.94;100000.09;4969356;28;20480;-86
2022/10/18 07:51:18;;;;;;;0.85;0.50;;;;;;;19.58;50.60;100001.75;4978307;28;20030;-86
2022/10/18 07:53:44;;;;;;;1.25;0.40;;;;;;;19.76;51.02;100030.38;4978460;28;20113;-87
2022/10/18 07:56:14;;;;;;;0.52;0.43;;;;;;;19.72;50.69;100031.16;4961591;28;20034;-87
2022/10/18 07:58:41;;;;;;;0.68;0.40;;;;;;;19.77;50.57;100028.53;4979617;28;20105;-87
2022/10/18 08:01:07;;;;;;;0.93;0.50;;;;;;;19.77;51.05;100025.81;4948644;28;20032;-86
2022/10/18 08:03:33;;;;;;;0.32;0.28;;;;;;;19.76;51.14;100032.28;4971602;28;20031;-86
2022/10/18 08:05:59;;;;;;;0.30;0.30;;;;;;;19.76;50.97;100038.53;4982397;28;20019;-86
2022/10/18 08:08:24;;;;;;;0.52;0.30;;;;;;;19.76;51.18;100030.38;4964727;28;20535;-86
2022/10/18 08:10:50;;;;;;;0.50;0.40;;;;;;;19.78;50.84;100030.97;4975044;28;20061;-86
2022/10/18 08:13:16;;;;;;;1.13;0.30;;;;;;;19.68;50.98;100012.69;4964836;28;20026;-86
2022/10/18 08:15:41;;;;;;;0.32;0.30;;;;;;;19.75;50.53;100023.34;4971065;28;20384;-86
2022/10/18 08:18:07;;;;;;;0.77;0.40;;;;;;;19.60;50.58;100004.19;4967628;28;20395;-86
2022/10/18 08:20:35;;;;;;;0.40;0.20;;;;;;;19.78;51.38;100022.00;4960606;28;20034;-86
2022/10/18 08:23:00;;;;;;;1.10;0.50;;;;;;;19.59;51.42;100005.25;4980162;28;20030;-87
2022/10/18 08:25:26;;;;;;;0.43;0.30;;;;;;;19.78;51.19;100022.00;4973455;28;20058;-87
2022/10/18 08:27:52;;;;;;;1.35;0.40;;;;;;;19.54;51.12;99997.91;4975071;28;20415;-86
2022/10/18 08:30:17;;;;;;;0.77;0.40;;;;;;;19.58;51.23;99993.63;4982769;28;20101;-87
2022/10/18 08:32:43;;;;;;;0.30;0.30;;;;;;;19.78;51.27;100022.84;4968622;28;20032;-87
2022/10/18 08:35:08;;;;;;;0.32;0.32;;;;;;;19.53;51.22;99998.97;4974475;28;20102;-86
2022/10/18 08:37:34;;;;;;;0.30;0.30;;;;;;;19.50;51.24;99991.34;4965135;28;20019;-86
2022/10/18 08:40:00;;;;;;;1.05;0.43;;;;;;;19.74;51.39;100020.88;4982925;28;20458;-86
2022/10/18 08:42:51;;;;;;;0.63;0.50;;;;;;;19.79;50.67;100031.78;4970523;28;20118;-86
2022/10/18 08:45:17;;;;;;;2.38;0.40;;;;;;;19.74;51.48;100032.53;4971016;28;20430;-86
2022/10/18 08:47:44;;;;;;;0.20;0.20;;;;;;;19.78;51.41;100032.84;4957347;28;20153;-86
2022/10/18 08:50:18;;;;;;;0.50;0.22;;;;;;;19.76;50.65;100027.69;4953807;28;20031;-86
2022/10/18 08:52:54;;;;;;;2.05;0.38;;;;;;;19.79;50.67;100029.06;4958730;28;20053;-86
2022/10/18 08:55:22;;;;;;;0.50;0.30;;;;;;;19.80;51.31;100033.41;4966031;28;20029;-86
2022/10/18 08:57:49;;;;;;;0.20;0.20;;;;;;;19.78;51.77;100033.69;4979808;28;20026;-87
2022/10/18 09:00:27;;;;;;;0.45;0.40;;;;;;;19.79;51.18;100039.91;4982329;28;20207;-87
2022/10/18 09:02:56;;;;;;;0.30;0.30;;;;;;;19.79;51.41;100039.91;4970553;28;20042;-86
2022/10/18 09:05:30;;;;;;;1.85;0.40;;;;;;;19.79;51.40;100034.50;4958716;28;20051;-86
2022/10/18 09:08:00;;;;;;;0.60;0.40;;;;;;;19.80;51.57;100038.81;4956989;28;20015;-87
2022/10/18 09:10:38;;;;;;;0.40;0.40;;;;;;;19.81;51.00;100040.47;4968069;28;20034;-87
2022/10/18 09:13:34;;;;;;;0.85;0.40;;;;;;;19.78;50.75;100041.81;4955852;28;20031;-87
2022/10/18 09:16:01;;;;;;;0.70;0.40;;;;;;;19.78;52.00;100039.09;4978009;28;20069;-86
2022/10/18 09:18:58;;;;;;;1.25;0.45;;;;;;;19.81;51.00;100043.19;4982498;28;20400;-86
2022/10/18 09:21:52;;;;;;;0.50;0.40;;;;;;;19.64;50.82;100016.97;4975877;28;20576;-86
2022/10/18 09:24:24;;;;;;;0.55;0.30;;;;;;;19.81;51.37;100037.75;4977120;28;20505;-86
2022/10/18 09:26:49;;;;;;;0.40;0.30;;;;;;;19.69;51.37;100019.72;4969365;28;20360;-86
2022/10/18 09:29:27;;;;;;;1.05;0.38;;;;;;;19.80;51.02;100036.13;4967557;28;20023;-86
2022/10/18 09:32:21;;;;;;;0.60;0.30;;;;;;;19.80;51.52;100036.97;4969042;28;20034;-86
2022/10/18 09:35:12;;;;;;;0.30;0.30;;;;;;;19.82;51.83;100025.84;4980643;28;20539;-86
2022/10/18 09:37:37;;;;;;;0.55;0.32;;;;;;;19.71;52.11;100016.75;4978933;28;20125;-86
2022/10/18 09:40:12;;;;;;;3.38;0.43;;;;;;;19.75;51.46;100030.66;4968803;28;20576;-87
2022/10/18 09:42:40;;;;;;;0.32;0.30;;;;;;;19.80;51.50;100041.53;4923671;28;20058;-86
2022/10/18 09:45:12;;;;;;;0.77;0.40;;;;;;;19.77;51.15;100031.22;4944554;28;20145;-86
2022/10/18 09:47:44;;;;;;;0.60;0.40;;;;;;;19.78;51.25;100047.25;4959220;28;20033;-86
2022/10/18 09:50:39;;;;;;;0.63;0.30;;;;;;;19.81;50.94;100032.34;4954336;28;20077;-86
2022/10/18 09:53:23;;;;;;;0.32;0.30;;;;;;;19.82;52.21;100031.28;4958673;28;20444;-86
2022/10/18 09:56:03;;;;;;;0.32;0.32;;;;;;;19.50;51.23;99977.81;4951677;28;20483;-86
2022/10/18 09:58:48;;;;;;;0.30;0.30;;;;;;;19.78;51.40;100028.25;4968481;28;20472;-86
2022/10/18 10:01:22;;;;;;;0.40;0.40;;;;;;;19.60;51.55;100002.31;4937035;28;20117;-87
2022/10/18 10:03:47;;;;;;;0.38;0.38;;;;;;;19.81;51.84;100030.44;4960407;28;20097;-87
2022/10/18 10:06:27;;;;;;;0.80;0.40;;;;;;;19.82;52.30;100029.38;4975877;28;20114;-87
2022/10/18 10:09:00;;;;;;;0.38;0.25;;;;;;;19.81;52.30;100029.63;4964290;28;20591;-87
2022/10/18 10:11:36;;;;;;;0.70;0.35;;;;;;;19.69;51.52;100000.75;4976949;28;20038;-87
2022/10/18 10:14:16;;;;;;;0.57;0.45;;;;;;;19.65;51.52;100002.34;4970139;28;20041;-87
2022/10/18 10:16:49;;;;;;;0.55;0.30;;;;;;;19.83;51.39;100030.19;4982029;28;20403;-87
2022/10/18 10:19:20;;;;;;;0.53;0.30;;;;;;;19.55;51.76;99991.41;4956459;28;20089;-87
2022/10/18 10:21:46;;;;;;;0.55;0.30;;;;;;;19.83;52.48;100030.19;4979327;28;20022;-87
2022/10/18 10:24:38;;;;;;;0.38;0.38;;;;;;;19.80;52.22;100025.28;4965119;28;20056;-87
2022/10/18 10:27:05;;;;;;;0.45;0.30;;;;;;;19.84;51.81;100031.84;4979253;28;20569;-87
2022/10/18 10:29:46;;;;;;;0.30;0.30;;;;;;;19.84;51.20;100031.84;4988722;28;20034;-87
2022/10/18 10:32:15;;;;;;;0.30;0.30;;;;;;;19.83;51.72;100030.19;4967349;28;20436;-87
2022/10/18 10:34:41;;;;;;;1.85;0.30;;;;;;;19.62;51.70;99997.44;4972291;28;20106;-87
2022/10/18 10:37:27;;;;;;;1.15;0.38;;;;;;;19.69;51.24;100008.88;4954724;28;20436;-87
2022/10/18 10:40:22;;;;;;;0.50;0.40;;;;;;;19.85;51.14;100028.88;4961106;28;20023;-87
2022/10/18 10:42:55;;;;;;;1.02;0.20;;;;;;;19.79;52.20;100019.03;4969891;28;20241;-87
2022/10/18 10:45:21;;;;;;;0.52;0.30;;;;;;;19.72;52.50;100002.13;4960394;28;20026;-87
2022/10/18 10:47:46;;;;;;;0.47;0.20;;;;;;;19.80;51.24;100011.72;4950398;28;20031;-87
2022/10/18 10:50:12;;;;;;;0.30;0.30;;;;;;;19.77;51.91;100007.63;4951406;28;20045;-87
2022/10/18 10:52:38;;;;;;;0.95;0.40;;;;;;;19.81;51.48;100016.06;4973131;28;20027;-86
2022/10/18 10:55:05;;;;;;;1.10;0.50;;;;;;;19.84;52.47;100015.56;4963641;28;20031;-86
2022/10/18 10:57:30;;;;;;;0.30;0.30;;;;;;;19.86;51.70;100007.97;4967984;28;20118;-87
2022/10/18 10:59:58;;;;;;;0.40;0.22;;;;;;;19.85;51.72;100011.75;4961183;28;20113;-87
2022/10/18 11:02:31;;;;;;;0.40;0.32;;;;;;;19.85;51.93;100007.16;4963180;28;20274;-87
2022/10/18 11:05:21;;;;;;;0.70;0.40;;;;;;;19.80;51.52;100011.72;4987112;28;20107;-87
2022/10/18 11:07:47;;;;;;;0.40;0.30;;;;;;;19.87;52.08;100015.06;4959356;28;20038;-87
2022/10/18 11:10:14;;;;;;;0.75;0.40;;;;;;;19.86;51.93;100025.06;4946167;28;20029;-87
2022/10/18 11:13:01;;;;;;;0.75;0.20;;;;;;;19.86;52.39;100010.69;4955663;28;20035;-87
2022/10/18 11:15:35;;;;;;;0.28;0.28;;;;;;;19.73;52.02;99990.22;4954853;28;20027;-87
2022/10/18 11:18:04;;;;;;;0.50;0.25;;;;;;;19.86;51.81;100005.28;4958712;28;20050;-87
2022/10/18 11:20:46;;;;;;;0.73;0.38;;;;;;;19.87;52.01;100010.44;4971925;28;20082;-87
2022/10/18 11:23:13;;;;;;;0.20;0.20;;;;;;;19.70;51.94;99991.56;4967009;28;20022;-87
2022/10/18 11:26:10;;;;;;;0.45;0.45;;;;;;;19.87;51.69;100001.50;4962897;28;20061;-87
2022/10/18 11:28:35;;;;;;;0.30;0.30;;;;;;;19.87;52.61;99996.06;4962822;28;20033;-87
2022/10/18 11:31:17;;;;;;;0.40;0.32;;;;;;;19.86;51.93;99997.13;4974677;28;20396;-87
2022/10/18 11:34:07;;;;;;;0.70;0.30;;;;;;;19.87;51.78;99996.06;4940254;28;20530;-87
2022/10/18 11:37:10;;;;;;;0.30;0.30;;;;;;;19.88;51.92;99989.56;4979017;28;20045;-87
2022/10/18 11:39:45;;;;;;;0.40;0.22;;;;;;;19.86;52.10;99989.81;4971425;28;20030;-87